createdAt,value
2022-08-05T00:02:07.933Z,91.60
2022-08-05T00:04:13.536Z,91.60
2022-08-05T00:06:27.854Z,91.60
2022-08-05T00:08:35.083Z,91.90
2022-08-05T00:10:37.541Z,91.70
2022-08-05T00:12:55.855Z,91.90
2022-08-05T00:14:58.688Z,92.10
2022-08-05T00:17:01.968Z,92.30
2022-08-05T00:19:05.341Z,92.40
2022-08-05T00:21:08.264Z,92.70
2022-08-05T00:23:12.949Z,93.00
2022-08-05T00:25:14.904Z,92.50
2022-08-05T00:27:18.017Z,93.40
2022-08-05T00:29:22.575Z,93.00
2022-08-05T00:31:53.675Z,93.40
2022-08-05T00:34:54.613Z,93.60
2022-08-05T00:36:16.257Z,93.90
2022-08-05T00:38:34.061Z,93.60
2022-08-05T00:40:53.316Z,94.30
2022-08-05T00:42:56.201Z,94.10
2022-08-05T00:44:57.895Z,94.60
2022-08-05T00:47:01.553Z,94.90
2022-08-05T00:49:05.621Z,94.90
2022-08-05T00:51:51.031Z,95.20
2022-08-05T00:54:00.276Z,94.80
2022-08-05T00:55:52.880Z,95.00
2022-08-05T00:57:58.325Z,95.00
2022-08-05T01:00:00.554Z,94.90
2022-08-05T01:02:02.263Z,95.10
2022-08-05T01:04:04.044Z,95.10
2022-08-05T01:06:15.577Z,95.20
2022-08-05T01:08:39.899Z,95.30
2022-08-05T01:10:52.400Z,95.60
2022-08-05T01:13:12.960Z,95.60
2022-08-05T01:15:34.979Z,95.80
2022-08-05T01:17:40.002Z,96.00
2022-08-05T01:20:01.317Z,96.00
2022-08-05T01:22:24.117Z,96.30
2022-08-05T01:24:34.717Z,96.10
2022-08-05T01:26:40.871Z,96.70
2022-08-05T01:28:49.234Z,96.90
2022-08-05T01:30:56.973Z,96.80
2022-08-05T01:32:59.060Z,96.80
2022-08-05T01:35:02.164Z,97.30
2022-08-05T01:37:06.875Z,97.80
2022-08-05T01:39:11.927Z,97.90
2022-08-05T01:41:16.876Z,97.60
2022-08-05T01:43:26.245Z,97.90
2022-08-05T01:45:34.848Z,98.00
2022-08-05T01:47:44.976Z,98.00
2022-08-05T01:50:02.057Z,98.00
2022-08-05T01:52:17.323Z,98.20
2022-08-05T01:54:20.514Z,98.20
2022-08-05T01:58:10.129Z,98.10
2022-08-05T01:58:52.739Z,98.60
2022-08-05T02:00:56.736Z,98.90
2022-08-05T02:03:24.237Z,98.90
2022-08-05T02:05:34.272Z,99.20
2022-08-05T02:07:40.259Z,98.90
2022-08-05T02:09:41.951Z,98.90
2022-08-05T02:11:52.500Z,99.10
2022-08-05T02:14:14.383Z,99.10
2022-08-05T02:16:30.329Z,99.00
2022-08-05T02:18:35.468Z,99.10
2022-08-05T02:20:42.702Z,99.10
2022-08-05T02:22:55.002Z,99.10
2022-08-05T02:25:08.650Z,99.10
2022-08-05T02:27:15.027Z,99.10
2022-08-05T02:29:24.122Z,99.30
2022-08-05T02:31:34.827Z,99.20
2022-08-05T02:33:39.558Z,99.00
2022-08-05T02:35:51.058Z,99.00
2022-08-05T02:38:00.229Z,98.90
2022-08-05T02:40:04.573Z,98.80
2022-08-05T02:42:11.528Z,98.90
2022-08-05T02:44:28.563Z,98.90
2022-08-05T02:46:30.464Z,99.40
2022-08-05T02:48:32.845Z,99.10
2022-08-05T02:50:36.085Z,99.90
2022-08-05T02:52:38.454Z,99.90
2022-08-05T02:54:51.211Z,99.90
2022-08-05T02:56:54.278Z,99.90
2022-08-05T02:58:56.185Z,99.90
2022-08-05T03:01:00.771Z,99.90
2022-08-05T03:03:10.286Z,99.90
2022-08-05T03:05:13.855Z,99.60
2022-08-05T03:07:24.701Z,99.90
2022-08-05T03:09:43.900Z,99.60
2022-08-05T03:11:58.041Z,99.30
2022-08-05T03:14:03.092Z,99.50
2022-08-05T03:16:06.012Z,99.50
2022-08-05T03:18:11.226Z,99.50
2022-08-05T03:20:13.894Z,99.60
2022-08-05T03:22:19.032Z,99.80
2022-08-05T03:24:35.048Z,99.80
2022-08-05T03:26:37.271Z,99.60
2022-08-05T03:28:39.068Z,99.80
2022-08-05T03:30:41.053Z,99.90
2022-08-05T03:32:44.076Z,99.90
2022-08-05T03:34:49.588Z,99.90
2022-08-05T03:36:53.117Z,99.90
2022-08-05T03:38:55.091Z,99.90
2022-08-05T03:40:57.681Z,99.90
2022-08-05T03:43:01.307Z,99.90
2022-08-05T03:45:22.177Z,99.90
2022-08-05T03:47:25.110Z,99.90
2022-08-05T03:49:52.080Z,99.90
2022-08-05T03:52:38.912Z,99.90
2022-08-05T03:55:51.172Z,99.90
2022-08-05T03:57:00.733Z,99.90
2022-08-05T03:59:05.220Z,99.90
2022-08-05T04:01:11.113Z,99.90
2022-08-05T04:03:14.826Z,99.90
2022-08-05T04:05:33.185Z,99.90
2022-08-05T04:07:46.766Z,99.90
2022-08-05T04:09:58.538Z,99.90
2022-08-05T04:12:05.201Z,99.90
2022-08-05T04:14:30.102Z,99.90
2022-08-05T04:16:35.406Z,99.90
2022-08-05T04:18:38.068Z,99.90
2022-08-05T04:20:41.592Z,99.90
2022-08-05T04:22:43.252Z,99.90
2022-08-05T04:24:52.622Z,99.90
2022-08-05T04:26:54.840Z,99.90
2022-08-05T04:29:00.341Z,99.90
2022-08-05T04:31:10.650Z,99.90
2022-08-05T04:33:13.066Z,99.90
2022-08-05T04:35:19.805Z,99.90
2022-08-05T04:37:22.949Z,99.90
2022-08-05T04:39:43.400Z,99.90
2022-08-05T04:41:45.818Z,99.90
2022-08-05T04:43:52.857Z,99.90
2022-08-05T04:45:55.766Z,99.90
2022-08-05T04:48:27.827Z,99.90
2022-08-05T04:50:37.153Z,99.90
2022-08-05T04:52:39.339Z,99.90
2022-08-05T04:54:41.343Z,99.90
2022-08-05T04:56:43.618Z,99.90
2022-08-05T04:58:45.451Z,99.90
2022-08-05T05:00:50.878Z,99.90
2022-08-05T05:02:52.823Z,99.90
2022-08-05T05:05:01.920Z,99.90
2022-08-05T05:07:04.468Z,99.90
2022-08-05T05:09:13.987Z,99.90
2022-08-05T05:11:19.009Z,99.90
2022-08-05T05:13:25.274Z,99.90
2022-08-05T05:15:57.608Z,99.90
2022-08-05T05:17:57.100Z,99.90
2022-08-05T05:19:59.443Z,99.90
2022-08-05T05:22:03.625Z,99.90
2022-08-05T05:24:23.347Z,99.90
2022-08-05T05:26:46.509Z,99.90
2022-08-05T05:28:49.672Z,99.90
2022-08-05T05:30:54.183Z,99.90
2022-08-05T05:33:00.158Z,99.90
2022-08-05T05:35:03.241Z,99.90
2022-08-05T05:37:05.035Z,99.90
2022-08-05T05:39:09.402Z,99.90
2022-08-05T05:41:16.411Z,99.90
2022-08-05T05:43:22.394Z,99.90
2022-08-05T05:45:42.665Z,99.90
2022-08-05T05:48:06.333Z,99.30
2022-08-05T05:50:09.950Z,99.50
2022-08-05T05:52:28.386Z,99.10
2022-08-05T05:54:35.488Z,98.50
2022-08-05T05:56:52.342Z,97.90
2022-08-05T05:58:54.635Z,97.40
2022-08-05T06:00:57.529Z,96.90
2022-08-05T06:03:40.096Z,96.40
2022-08-05T06:05:35.376Z,95.50
2022-08-05T06:07:41.813Z,94.70
2022-08-05T06:09:59.998Z,94.20
2022-08-05T06:12:03.629Z,93.40
2022-08-05T06:14:05.322Z,92.70
2022-08-05T06:16:30.748Z,92.40
2022-08-05T06:18:31.411Z,91.50
2022-08-05T06:20:33.511Z,91.60
2022-08-05T06:22:37.536Z,91.20
2022-08-05T06:24:48.191Z,90.50
2022-08-05T06:26:51.328Z,90.20
2022-08-05T06:28:54.197Z,89.70
2022-08-05T06:30:55.860Z,90.00
2022-08-05T06:32:57.621Z,89.40
2022-08-05T06:34:59.354Z,89.00
2022-08-05T06:37:01.086Z,89.00
2022-08-05T06:39:02.905Z,87.80
2022-08-05T06:41:05.581Z,87.30
2022-08-05T06:43:58.191Z,86.80
2022-08-05T06:45:45.122Z,86.00
2022-08-05T06:48:37.163Z,86.10
2022-08-05T06:50:17.277Z,85.70
2022-08-05T06:52:36.638Z,85.00
2022-08-05T06:54:40.084Z,83.10
2022-08-05T06:56:41.761Z,83.20
2022-08-05T06:58:57.217Z,82.70
2022-08-05T07:01:00.048Z,82.90
2022-08-05T07:03:01.860Z,81.70
2022-08-05T07:05:03.583Z,82.00
2022-08-05T07:07:16.145Z,81.70
2022-08-05T07:09:25.946Z,79.90
2022-08-05T07:11:37.363Z,79.00
2022-08-05T07:14:00.314Z,77.40
2022-08-05T07:17:56.351Z,77.00
2022-08-05T07:18:47.925Z,77.60
2022-08-05T07:20:49.749Z,77.50
2022-08-05T07:22:51.822Z,76.40
2022-08-05T07:24:53.850Z,76.00
2022-08-05T07:26:55.601Z,76.30
2022-08-05T07:28:57.276Z,75.70
2022-08-05T07:31:01.514Z,76.20
2022-08-05T07:33:09.435Z,75.80
2022-08-05T07:36:02.709Z,75.80
2022-08-05T07:37:37.460Z,75.90
2022-08-05T07:40:04.529Z,75.90
2022-08-05T07:42:07.671Z,74.70
2022-08-05T07:44:19.291Z,74.80
2022-08-05T07:46:25.034Z,75.10
2022-08-05T07:49:02.945Z,75.40
2022-08-05T07:50:49.192Z,75.50
2022-08-05T07:52:51.337Z,75.60
2022-08-05T07:54:53.143Z,75.70
2022-08-05T07:57:13.611Z,75.90
2022-08-05T07:59:16.438Z,76.50
2022-08-05T08:01:18.366Z,75.50
2022-08-05T08:03:24.567Z,75.90
2022-08-05T08:05:49.599Z,75.50
2022-08-05T08:07:59.669Z,76.00
2022-08-05T08:10:02.598Z,76.40
2022-08-05T08:12:12.507Z,76.30
2022-08-05T08:14:21.937Z,76.70
2022-08-05T08:16:34.774Z,76.60
2022-08-05T08:18:50.259Z,76.30
2022-08-05T08:21:02.801Z,76.20
2022-08-05T08:23:07.475Z,75.90
2022-08-05T08:26:00.654Z,76.30
2022-08-05T08:27:51.317Z,75.10
2022-08-05T08:30:05.393Z,75.50
2022-08-05T08:32:14.999Z,74.10
2022-08-05T08:34:30.532Z,73.20
2022-08-05T08:36:49.069Z,73.00
2022-08-05T08:38:55.627Z,72.30
2022-08-05T08:40:57.880Z,71.40
2022-08-05T08:45:16.212Z,71.30
2022-08-05T08:45:27.248Z,70.90
2022-08-05T08:48:05.861Z,70.80
2022-08-05T08:50:13.080Z,70.50
2022-08-05T08:52:23.184Z,71.10
2022-08-05T08:54:27.222Z,71.10
2022-08-05T08:56:29.803Z,70.80
2022-08-05T08:58:37.147Z,71.00
2022-08-05T09:00:46.706Z,70.70
2022-08-05T09:02:50.960Z,70.80
2022-08-05T09:05:16.310Z,71.00
2022-08-05T09:07:28.250Z,71.10
2022-08-05T09:09:34.963Z,70.30
2022-08-05T09:11:51.932Z,70.00
2022-08-05T09:14:09.166Z,70.30
2022-08-05T09:16:17.906Z,69.90
2022-08-05T09:18:20.521Z,70.60
2022-08-05T09:20:37.793Z,70.50
2022-08-05T09:23:05.360Z,70.70
2022-08-05T09:25:24.094Z,69.80
2022-08-05T09:28:05.219Z,69.60
2022-08-05T09:30:01.185Z,70.30
2022-08-05T09:32:41.637Z,70.00
2022-08-05T09:34:46.307Z,70.50
2022-08-05T09:36:59.192Z,71.00
2022-08-05T09:39:03.790Z,71.40
2022-08-05T09:41:19.678Z,71.10
2022-08-05T09:43:26.341Z,70.70
2022-08-05T09:46:07.830Z,70.10
2022-08-05T09:47:57.519Z,70.40
2022-08-05T09:50:02.529Z,70.60
2022-08-05T09:52:25.874Z,70.80
2022-08-05T09:54:33.392Z,70.50
2022-08-05T09:56:37.836Z,69.80
2022-08-05T09:58:41.744Z,69.80
2022-08-05T10:00:56.448Z,69.40
2022-08-05T10:03:08.336Z,68.90
2022-08-05T10:05:12.317Z,70.40
2022-08-05T10:07:20.188Z,69.00
2022-08-05T10:09:45.053Z,69.20
2022-08-05T10:11:47.503Z,68.40
2022-08-05T10:13:49.706Z,68.90
2022-08-05T10:15:58.297Z,68.30
2022-08-05T10:18:16.943Z,68.60
2022-08-05T10:20:20.038Z,68.30
2022-08-05T10:22:30.040Z,67.60
2022-08-05T10:24:32.807Z,67.10
2022-08-05T10:26:34.543Z,67.50
2022-08-05T10:28:36.758Z,66.70
2022-08-05T10:32:46.671Z,66.90
2022-08-05T10:33:01.989Z,67.10
2022-08-05T10:35:04.701Z,66.20
2022-08-05T10:37:07.198Z,66.80
2022-08-05T10:39:24.622Z,67.00
2022-08-05T10:41:46.427Z,67.10
2022-08-05T10:43:56.598Z,66.60
2022-08-05T10:46:06.254Z,66.10
2022-08-05T10:48:31.005Z,67.70
2022-08-05T10:50:55.115Z,66.80
2022-08-05T10:53:01.115Z,66.70
2022-08-05T10:55:05.839Z,67.00
2022-08-05T10:57:07.562Z,67.10
2022-08-05T11:00:02.697Z,67.00
2022-08-05T11:02:04.659Z,66.80
2022-08-05T11:04:08.726Z,67.00
2022-08-05T11:06:15.249Z,67.60
2022-08-05T11:08:36.606Z,68.00
2022-08-05T11:10:50.472Z,65.80
2022-08-05T11:13:02.119Z,66.30
2022-08-05T11:15:19.406Z,65.50
2022-08-05T11:18:07.417Z,65.00
2022-08-05T11:20:11.121Z,64.50
2022-08-05T11:22:37.199Z,64.50
2022-08-05T11:24:50.752Z,63.00
2022-08-05T11:27:29.217Z,62.60
2022-08-05T11:29:59.009Z,63.40
2022-08-05T11:32:19.657Z,62.60
2022-08-05T11:34:36.100Z,63.50
2022-08-05T11:36:42.872Z,62.40
2022-08-05T11:38:45.745Z,62.60
2022-08-05T11:41:00.407Z,63.30
2022-08-05T11:43:03.563Z,61.60
2022-08-05T11:45:27.037Z,61.90
2022-08-05T11:47:48.443Z,61.90
2022-08-05T11:49:56.174Z,60.80
2022-08-05T11:51:59.772Z,61.30
2022-08-05T11:54:01.860Z,59.60
2022-08-05T11:56:04.197Z,60.30
2022-08-05T11:58:10.145Z,60.30
2022-08-05T12:00:30.720Z,60.00
2022-08-05T12:02:33.439Z,59.50
2022-08-05T12:04:59.659Z,59.60
2022-08-05T12:07:01.929Z,59.30
2022-08-05T12:09:04.555Z,59.00
2022-08-05T12:11:08.076Z,59.10
2022-08-05T12:13:16.303Z,59.40
2022-08-05T12:15:33.237Z,58.20
2022-08-05T12:18:03.597Z,57.90
2022-08-05T12:20:25.995Z,57.40
2022-08-05T12:22:27.032Z,56.70
2022-08-05T12:24:28.672Z,58.90
2022-08-05T12:26:32.278Z,59.10
2022-08-05T12:28:36.684Z,58.50
2022-08-05T12:30:38.620Z,59.10
2022-08-05T12:32:51.236Z,57.20
2022-08-05T12:34:53.049Z,57.90
2022-08-05T12:36:55.409Z,59.10
2022-08-05T12:38:57.537Z,57.20
2022-08-05T12:40:59.396Z,56.50
2022-08-05T12:43:01.156Z,55.80
2022-08-05T12:45:08.792Z,55.80
2022-08-05T12:47:12.469Z,56.90
2022-08-05T12:49:15.062Z,55.80
2022-08-05T12:52:10.223Z,57.50
2022-08-05T12:53:42.841Z,56.70
2022-08-05T12:55:49.188Z,56.90
2022-08-05T12:58:49.001Z,57.50
2022-08-05T13:02:04.442Z,56.30
2022-08-05T13:02:43.195Z,56.30
2022-08-05T13:04:52.585Z,56.60
2022-08-05T13:06:57.222Z,57.40
2022-08-05T13:09:06.023Z,56.40
2022-08-05T13:11:16.793Z,55.40
2022-08-05T13:14:05.601Z,56.80
2022-08-05T13:15:51.246Z,55.90
2022-08-05T13:17:53.571Z,56.50
2022-08-05T13:19:58.208Z,57.60
2022-08-05T13:22:00.036Z,57.70
2022-08-05T13:24:04.418Z,57.30
2022-08-05T13:26:06.225Z,57.50
2022-08-05T13:28:10.663Z,56.70
2022-08-05T13:30:34.983Z,55.20
2022-08-05T13:32:39.417Z,55.30
2022-08-05T13:34:43.974Z,55.50
2022-08-05T13:36:45.703Z,54.80
2022-08-05T13:38:51.850Z,54.90
2022-08-05T13:40:53.942Z,54.90
2022-08-05T13:42:55.871Z,55.20
2022-08-05T13:44:57.575Z,57.10
2022-08-05T13:47:02.408Z,56.80
2022-08-05T13:49:11.959Z,54.30
2022-08-05T13:51:14.004Z,55.10
2022-08-05T13:53:16.248Z,55.00
2022-08-05T13:55:40.929Z,54.70
2022-08-05T13:57:48.695Z,54.70
2022-08-05T13:59:57.107Z,54.10
2022-08-05T14:02:01.426Z,54.80
2022-08-05T14:04:21.890Z,54.30
2022-08-05T14:06:28.205Z,54.20
2022-08-05T14:08:32.578Z,53.80
2022-08-05T14:10:35.470Z,54.50
2022-08-05T14:12:39.666Z,55.20
2022-08-05T14:14:44.431Z,54.80
2022-08-05T14:16:46.832Z,54.70
2022-08-05T14:18:51.933Z,55.00
2022-08-05T14:20:54.461Z,55.50
2022-08-05T14:22:57.879Z,54.80
2022-08-05T14:24:59.532Z,54.40
2022-08-05T14:27:17.685Z,55.10
2022-08-05T14:29:20.302Z,54.60
2022-08-05T14:32:02.379Z,55.30
2022-08-05T14:33:59.218Z,55.00
2022-08-05T14:36:03.619Z,55.30
2022-08-05T14:38:05.320Z,55.00
2022-08-05T14:40:07.220Z,55.20
2022-08-05T14:42:21.389Z,56.00
2022-08-05T14:44:23.542Z,56.80
2022-08-05T14:46:28.193Z,55.80
2022-08-05T14:48:32.858Z,55.90
2022-08-05T14:50:39.737Z,56.50
2022-08-05T14:52:52.568Z,56.30
2022-08-05T14:54:55.040Z,54.70
2022-08-05T14:56:56.892Z,55.20
2022-08-05T14:58:58.568Z,54.40
2022-08-05T15:01:00.490Z,52.60
2022-08-05T15:03:04.282Z,53.40
2022-08-05T15:05:13.183Z,53.80
2022-08-05T15:08:04.542Z,53.50
2022-08-05T15:09:54.088Z,53.20
2022-08-05T15:11:57.693Z,52.80
2022-08-05T15:13:59.380Z,52.30
2022-08-05T15:16:01.961Z,51.20
2022-08-05T15:18:05.828Z,50.30
2022-08-05T15:20:18.860Z,48.80
2022-08-05T15:22:27.062Z,51.40
2022-08-05T15:24:29.646Z,50.60
2022-08-05T15:26:32.533Z,49.70
2022-08-05T15:28:34.297Z,48.80
2022-08-05T15:30:36.893Z,50.20
2022-08-05T15:32:39.942Z,47.20
2022-08-05T15:34:42.181Z,47.00
2022-08-05T15:36:43.856Z,47.20
2022-08-05T15:38:46.440Z,47.30
2022-08-05T15:41:04.511Z,47.10
2022-08-05T15:43:19.832Z,47.90
2022-08-05T15:45:37.130Z,46.80
2022-08-05T15:47:40.916Z,45.90
2022-08-05T15:49:58.592Z,46.80
2022-08-05T15:52:13.305Z,45.90
2022-08-05T15:54:18.160Z,45.70
2022-08-05T15:56:20.207Z,46.30
2022-08-05T15:58:23.144Z,46.10
2022-08-05T16:00:32.785Z,46.30
2022-08-05T16:02:46.872Z,46.50
2022-08-05T16:04:48.871Z,46.30
2022-08-05T16:06:50.663Z,45.40
2022-08-05T16:08:55.302Z,45.80
2022-08-05T16:10:57.379Z,45.20
2022-08-05T16:12:59.058Z,43.40
2022-08-05T16:15:01.282Z,44.30
2022-08-05T16:17:03.142Z,44.70
2022-08-05T16:19:06.325Z,45.00
2022-08-05T16:21:07.963Z,45.70
2022-08-05T16:23:09.911Z,45.50
2022-08-05T16:25:13.179Z,45.60
2022-08-05T16:27:15.771Z,44.90
2022-08-05T16:29:20.000Z,46.20
2022-08-05T16:31:22.084Z,47.20
2022-08-05T16:33:23.806Z,46.40
2022-08-05T16:35:32.311Z,45.40
2022-08-05T16:38:02.277Z,47.80
2022-08-05T16:40:06.309Z,47.00
2022-08-05T16:42:13.873Z,46.80
2022-08-05T16:44:29.793Z,48.90
2022-08-05T16:46:31.887Z,49.10
2022-08-05T16:48:35.296Z,49.70
2022-08-05T16:50:37.605Z,50.20
2022-08-05T16:52:39.281Z,50.60
2022-08-05T16:54:47.745Z,50.80
2022-08-05T16:56:51.946Z,51.70
2022-08-05T16:58:54.069Z,52.30
2022-08-05T17:00:55.768Z,53.80
2022-08-05T17:02:57.543Z,53.30
2022-08-05T17:04:59.208Z,53.80
2022-08-05T17:07:03.340Z,53.30
2022-08-05T17:09:12.789Z,54.00
2022-08-05T17:11:17.303Z,54.40
2022-08-05T17:13:21.453Z,55.20
2022-08-05T17:15:48.048Z,54.90
2022-08-05T17:17:55.062Z,55.90
2022-08-05T17:19:57.104Z,55.60
2022-08-05T17:21:58.821Z,56.60
2022-08-05T17:24:05.253Z,57.00
2022-08-05T17:26:09.928Z,57.30
2022-08-05T17:28:15.424Z,57.80
2022-08-05T17:30:19.171Z,57.30
2022-08-05T17:32:33.675Z,58.60
2022-08-05T17:34:36.350Z,58.90
2022-08-05T17:36:40.572Z,59.00
2022-08-05T17:38:42.536Z,59.40
2022-08-05T17:40:44.431Z,59.50
2022-08-05T17:42:51.282Z,59.20
2022-08-05T17:44:54.050Z,60.00
2022-08-05T17:46:55.706Z,60.80
2022-08-05T17:48:57.973Z,60.20
2022-08-05T17:50:59.817Z,61.00
2022-08-05T17:53:04.724Z,61.40
2022-08-05T17:55:07.868Z,62.20
2022-08-05T17:57:12.331Z,61.00
2022-08-05T17:59:14.209Z,62.00
2022-08-05T18:01:23.008Z,62.70
2022-08-05T18:03:59.309Z,62.10
2022-08-05T18:05:52.993Z,61.60
2022-08-05T18:07:56.838Z,62.80
2022-08-05T18:10:02.108Z,63.20
2022-08-05T18:12:11.991Z,63.60
2022-08-05T18:14:20.497Z,64.10
2022-08-05T18:16:22.571Z,64.50
2022-08-05T18:18:26.939Z,63.20
2022-08-05T18:20:31.675Z,63.90
2022-08-05T18:22:46.215Z,65.80
2022-08-05T18:24:55.836Z,64.40
2022-08-05T18:26:57.703Z,65.00
2022-08-05T18:28:59.993Z,63.70
2022-08-05T18:31:01.632Z,64.60
2022-08-05T18:33:03.476Z,64.80
2022-08-05T18:35:05.420Z,64.80
2022-08-05T18:37:12.490Z,65.60
2022-08-05T18:39:42.574Z,65.90
2022-08-05T18:41:56.636Z,66.30
2022-08-05T18:43:57.872Z,67.00
2022-08-05T18:46:09.657Z,66.70
2022-08-05T18:48:11.942Z,67.40
2022-08-05T18:50:45.272Z,67.60
2022-08-05T18:52:51.114Z,68.30
2022-08-05T18:54:54.541Z,68.80
2022-08-05T18:56:57.171Z,68.70
2022-08-05T18:59:01.133Z,67.50
2022-08-05T19:01:03.154Z,68.50
2022-08-05T19:03:07.193Z,68.20
2022-08-05T19:06:12.307Z,68.10
2022-08-05T19:07:46.340Z,69.10
2022-08-05T19:09:48.581Z,69.80
2022-08-05T19:11:59.954Z,70.90
2022-08-05T19:14:20.006Z,70.60
2022-08-05T19:16:28.547Z,71.50
2022-08-05T19:18:31.910Z,72.20
2022-08-05T19:20:33.704Z,70.60
2022-08-05T19:22:36.638Z,71.40
2022-08-05T19:24:54.204Z,70.90
2022-08-05T19:26:58.270Z,70.30
2022-08-05T19:29:00.082Z,70.10
2022-08-05T19:31:05.849Z,69.90
2022-08-05T19:33:16.750Z,70.10
2022-08-05T19:35:18.719Z,72.50
2022-08-05T19:37:29.853Z,74.80
2022-08-05T19:39:45.799Z,77.40
2022-08-05T19:42:06.377Z,81.00
2022-08-05T19:44:13.663Z,83.10
2022-08-05T19:46:27.215Z,84.70
2022-08-05T19:48:31.480Z,87.50
2022-08-05T19:50:36.669Z,89.00
2022-08-05T19:52:39.996Z,91.70
2022-08-05T19:54:41.708Z,92.00
2022-08-05T19:56:43.593Z,93.60
2022-08-05T19:58:53.917Z,94.80
2022-08-05T20:00:56.111Z,95.90
2022-08-05T20:02:58.727Z,98.20
2022-08-05T20:05:00.450Z,98.20
2022-08-05T20:07:02.173Z,99.90
2022-08-05T20:09:13.646Z,99.90
2022-08-05T20:11:18.047Z,99.90
2022-08-05T20:13:25.810Z,99.90
2022-08-05T20:15:52.535Z,99.90
2022-08-05T20:17:53.713Z,99.90
2022-08-05T20:19:57.751Z,99.90
2022-08-05T20:21:59.541Z,99.90
2022-08-05T20:24:01.310Z,99.90
2022-08-05T20:26:03.693Z,99.90
2022-08-05T20:28:08.095Z,99.90
2022-08-05T20:30:15.535Z,99.90
2022-08-05T20:32:21.405Z,99.90
2022-08-05T20:34:23.263Z,99.90
2022-08-05T20:36:25.923Z,99.90
2022-08-05T20:38:29.564Z,99.90
2022-08-05T20:40:35.535Z,99.90
2022-08-05T20:42:37.211Z,99.90
2022-08-05T20:44:38.851Z,99.90
2022-08-05T20:46:40.538Z,99.90
2022-08-05T20:48:44.575Z,99.90
2022-08-05T20:50:47.836Z,99.90
2022-08-05T20:52:49.839Z,99.90
2022-08-05T20:54:59.979Z,99.90
2022-08-05T20:57:41.861Z,99.90
2022-08-05T20:59:46.170Z,99.90
2022-08-05T21:01:59.465Z,99.90
2022-08-05T21:04:01.253Z,99.90
2022-08-05T21:06:03.041Z,99.90
2022-08-05T21:08:04.957Z,99.90
2022-08-05T21:10:09.196Z,99.90
2022-08-05T21:12:19.287Z,99.90
2022-08-05T21:14:21.136Z,99.90
2022-08-05T21:16:29.793Z,99.90
2022-08-05T21:18:32.216Z,99.90
2022-08-05T21:20:34.342Z,99.90
2022-08-05T21:22:36.269Z,99.90
2022-08-05T21:24:37.999Z,99.90
2022-08-05T21:26:41.367Z,99.90
2022-08-05T21:28:50.618Z,99.90
2022-08-05T21:30:52.808Z,99.90
2022-08-05T21:32:54.714Z,99.90
2022-08-05T21:35:16.748Z,99.90
2022-08-05T21:37:18.804Z,99.90
2022-08-05T21:39:27.015Z,99.90
2022-08-05T21:41:33.811Z,99.90
2022-08-05T21:43:41.490Z,99.90
2022-08-05T21:45:56.748Z,99.90
2022-08-05T21:48:02.324Z,99.90
2022-08-05T21:50:08.757Z,99.90
2022-08-05T21:52:22.082Z,99.90
2022-08-05T21:54:31.070Z,99.90
2022-08-05T21:56:33.017Z,99.90
2022-08-05T21:58:36.662Z,99.90
2022-08-05T22:00:50.952Z,99.90
2022-08-05T22:02:53.625Z,99.90
2022-08-05T22:04:58.338Z,99.90
2022-08-05T22:07:00.401Z,99.90
2022-08-05T22:09:02.236Z,99.90
2022-08-05T22:11:15.924Z,99.90
2022-08-05T22:14:19.920Z,99.90
2022-08-05T22:16:00.285Z,99.90
2022-08-05T22:18:05.567Z,99.90
2022-08-05T22:20:13.755Z,99.90
2022-08-05T22:22:16.694Z,99.90
2022-08-05T22:24:52.460Z,99.90
2022-08-05T22:27:17.479Z,99.90
2022-08-05T22:29:26.150Z,99.90
2022-08-05T22:31:30.155Z,99.90
2022-08-05T22:33:58.071Z,99.90
2022-08-05T22:35:54.075Z,99.90
2022-08-05T22:37:58.940Z,99.90
2022-08-05T22:40:01.533Z,99.90
2022-08-05T22:42:09.811Z,99.90
2022-08-05T22:44:13.856Z,99.90
2022-08-05T22:46:23.634Z,99.90
2022-08-05T22:48:27.576Z,99.90
2022-08-05T22:50:29.243Z,99.90
2022-08-05T22:52:34.329Z,99.90
2022-08-05T22:54:36.393Z,99.90
2022-08-05T22:56:40.034Z,99.90
2022-08-05T22:58:43.820Z,99.90
2022-08-05T23:00:45.640Z,99.90
2022-08-05T23:02:50.545Z,99.90
2022-08-05T23:04:52.522Z,99.90
2022-08-05T23:06:56.848Z,99.90
2022-08-05T23:09:27.288Z,99.90
2022-08-05T23:11:20.224Z,99.90
2022-08-05T23:13:21.891Z,99.90
2022-08-05T23:15:26.988Z,99.90
2022-08-05T23:17:34.126Z,99.90
2022-08-05T23:19:41.951Z,99.90
2022-08-05T23:21:52.845Z,99.90
2022-08-05T23:23:56.066Z,99.90
2022-08-05T23:25:57.718Z,99.90
2022-08-05T23:28:00.807Z,99.90
2022-08-05T23:30:02.902Z,99.90
2022-08-05T23:32:10.153Z,99.90
2022-08-05T23:34:12.314Z,99.90
2022-08-05T23:36:14.086Z,99.90
2022-08-05T23:38:15.827Z,99.90
2022-08-05T23:40:18.794Z,99.90
2022-08-05T23:42:29.160Z,99.90
2022-08-05T23:44:32.288Z,99.90
2022-08-05T23:46:34.716Z,99.90
2022-08-05T23:48:39.270Z,99.90
2022-08-05T23:50:43.987Z,99.90
2022-08-05T23:52:49.958Z,99.90
2022-08-05T23:54:53.394Z,99.90
2022-08-05T23:57:03.330Z,99.90
2022-08-05T23:59:06.206Z,99.90
